sensor_id;sensor_type;location;lat;lon;timestamp;P1;durP1;ratioP1;P2;durP2;ratioP2
43933;SDS011;59081;42.706;23.306;2024-02-23T00:01:01;11.75;;;6.38;;
43933;SDS011;59081;42.706;23.306;2024-02-23T00:06:02;17.13;;;6.82;;
43933;SDS011;59081;42.706;23.306;2024-02-23T00:11:03;10.32;;;5.47;;
43933;SDS011;59081;42.706;23.306;2024-02-23T00:16:04;12.70;;;7.55;;
43933;SDS011;59081;42.706;23.306;2024-02-23T00:21:04;10.98;;;6.13;;
43933;SDS011;59081;42.706;23.306;2024-02-23T00:26:05;12.80;;;6.07;;
43933;SDS011;59081;42.706;23.306;2024-02-23T00:31:06;12.18;;;6.20;;
43933;SDS011;59081;42.706;23.306;2024-02-23T00:36:06;14.55;;;6.75;;
43933;SDS011;59081;42.706;23.306;2024-02-23T00:41:07;10.93;;;6.38;;
43933;SDS011;59081;42.706;23.306;2024-02-23T00:46:07;17.38;;;6.88;;
43933;SDS011;59081;42.706;23.306;2024-02-23T00:51:08;10.80;;;6.40;;
43933;SDS011;59081;42.706;23.306;2024-02-23T00:56:09;15.05;;;6.07;;
43933;SDS011;59081;42.706;23.306;2024-02-23T01:01:09;10.23;;;5.95;;
43933;SDS011;59081;42.706;23.306;2024-02-23T01:06:10;10.77;;;5.50;;
43933;SDS011;59081;42.706;23.306;2024-02-23T01:11:10;9.50;;;6.40;;
43933;SDS011;59081;42.706;23.306;2024-02-23T01:16:13;9.93;;;6.05;;
43933;SDS011;59081;42.706;23.306;2024-02-23T01:21:14;12.70;;;7.03;;
43933;SDS011;59081;42.706;23.306;2024-02-23T01:26:17;11.40;;;6.18;;
43933;SDS011;59081;42.706;23.306;2024-02-23T01:31:18;12.23;;;5.95;;
43933;SDS011;59081;42.706;23.306;2024-02-23T01:36:18;12.80;;;7.00;;
43933;SDS011;59081;42.706;23.306;2024-02-23T01:41:19;10.52;;;6.68;;
43933;SDS011;59081;42.706;23.306;2024-02-23T01:46:19;15.68;;;8.52;;
43933;SDS011;59081;42.706;23.306;2024-02-23T01:51:20;11.60;;;6.68;;
43933;SDS011;59081;42.706;23.306;2024-02-23T01:56:21;12.25;;;7.38;;
43933;SDS011;59081;42.706;23.306;2024-02-23T02:01:22;10.52;;;5.85;;
43933;SDS011;59081;42.706;23.306;2024-02-23T02:06:23;8.95;;;6.05;;
43933;SDS011;59081;42.706;23.306;2024-02-23T02:11:24;11.07;;;6.78;;
43933;SDS011;59081;42.706;23.306;2024-02-23T02:16:25;12.77;;;6.78;;
43933;SDS011;59081;42.706;23.306;2024-02-23T02:21:25;10.95;;;6.90;;
43933;SDS011;59081;42.706;23.306;2024-02-23T02:26:26;11.77;;;7.38;;
43933;SDS011;59081;42.706;23.306;2024-02-23T02:31:26;11.35;;;7.13;;
43933;SDS011;59081;42.706;23.306;2024-02-23T02:36:27;10.88;;;6.95;;
43933;SDS011;59081;42.706;23.306;2024-02-23T02:41:28;10.70;;;6.93;;
43933;SDS011;59081;42.706;23.306;2024-02-23T02:46:30;12.35;;;6.93;;
43933;SDS011;59081;42.706;23.306;2024-02-23T02:51:31;13.70;;;6.95;;
43933;SDS011;59081;42.706;23.306;2024-02-23T02:56:31;13.25;;;7.18;;
43933;SDS011;59081;42.706;23.306;2024-02-23T03:01:32;12.02;;;6.82;;
43933;SDS011;59081;42.706;23.306;2024-02-23T03:06:32;12.48;;;6.93;;
43933;SDS011;59081;42.706;23.306;2024-02-23T03:11:33;11.57;;;6.95;;
43933;SDS011;59081;42.706;23.306;2024-02-23T03:16:34;11.05;;;6.55;;
43933;SDS011;59081;42.706;23.306;2024-02-23T03:21:34;13.27;;;6.75;;
43933;SDS011;59081;42.706;23.306;2024-02-23T03:26:35;13.60;;;7.53;;
43933;SDS011;59081;42.706;23.306;2024-02-23T03:31:35;12.80;;;7.35;;
43933;SDS011;59081;42.706;23.306;2024-02-23T03:36:37;15.68;;;7.82;;
43933;SDS011;59081;42.706;23.306;2024-02-23T03:41:37;12.48;;;7.22;;
43933;SDS011;59081;42.706;23.306;2024-02-23T03:46:38;10.73;;;6.57;;
43933;SDS011;59081;42.706;23.306;2024-02-23T03:51:38;12.70;;;7.90;;
43933;SDS011;59081;42.706;23.306;2024-02-23T03:56:40;13.95;;;7.63;;
43933;SDS011;59081;42.706;23.306;2024-02-23T04:01:41;15.93;;;8.00;;
43933;SDS011;59081;42.706;23.306;2024-02-23T04:06:42;11.93;;;6.95;;
43933;SDS011;59081;42.706;23.306;2024-02-23T04:11:42;12.23;;;7.55;;
43933;SDS011;59081;42.706;23.306;2024-02-23T04:16:43;13.02;;;7.53;;
43933;SDS011;59081;42.706;23.306;2024-02-23T04:21:43;17.83;;;8.82;;
43933;SDS011;59081;42.706;23.306;2024-02-23T04:26:44;13.50;;;8.13;;
43933;SDS011;59081;42.706;23.306;2024-02-23T04:31:44;13.20;;;7.30;;
43933;SDS011;59081;42.706;23.306;2024-02-23T04:36:45;12.32;;;7.22;;
43933;SDS011;59081;42.706;23.306;2024-02-23T04:41:45;15.13;;;7.68;;
43933;SDS011;59081;42.706;23.306;2024-02-23T04:46:46;14.40;;;6.88;;
43933;SDS011;59081;42.706;23.306;2024-02-23T04:51:47;17.65;;;7.68;;
43933;SDS011;59081;42.706;23.306;2024-02-23T04:56:47;13.45;;;6.82;;
43933;SDS011;59081;42.706;23.306;2024-02-23T05:01:48;21.20;;;8.82;;
43933;SDS011;59081;42.706;23.306;2024-02-23T05:06:48;13.35;;;6.50;;
43933;SDS011;59081;42.706;23.306;2024-02-23T05:11:49;15.68;;;7.40;;
43933;SDS011;59081;42.706;23.306;2024-02-23T05:16:50;14.50;;;8.27;;
43933;SDS011;59081;42.706;23.306;2024-02-23T05:21:50;8.18;;;4.18;;
43933;SDS011;59081;42.706;23.306;2024-02-23T05:26:51;11.73;;;6.40;;
43933;SDS011;59081;42.706;23.306;2024-02-23T05:31:52;15.35;;;6.80;;
43933;SDS011;59081;42.706;23.306;2024-02-23T05:36:53;14.32;;;8.88;;
43933;SDS011;59081;42.706;23.306;2024-02-23T05:41:56;13.40;;;7.90;;
43933;SDS011;59081;42.706;23.306;2024-02-23T05:46:57;12.77;;;7.93;;
43933;SDS011;59081;42.706;23.306;2024-02-23T05:51:57;18.13;;;9.07;;
43933;SDS011;59081;42.706;23.306;2024-02-23T05:56:58;16.67;;;8.00;;
43933;SDS011;59081;42.706;23.306;2024-02-23T06:01:59;15.88;;;8.27;;
43933;SDS011;59081;42.706;23.306;2024-02-23T06:06:59;13.90;;;8.02;;
43933;SDS011;59081;42.706;23.306;2024-02-23T06:12:00;11.60;;;5.75;;
43933;SDS011;59081;42.706;23.306;2024-02-23T06:17:01;12.82;;;8.38;;
43933;SDS011;59081;42.706;23.306;2024-02-23T06:22:01;17.35;;;9.65;;
43933;SDS011;59081;42.706;23.306;2024-02-23T06:27:02;15.38;;;5.65;;
43933;SDS011;59081;42.706;23.306;2024-02-23T06:32:03;15.63;;;8.45;;
43933;SDS011;59081;42.706;23.306;2024-02-23T06:37:04;15.68;;;8.82;;
43933;SDS011;59081;42.706;23.306;2024-02-23T06:42:05;17.17;;;8.68;;
43933;SDS011;59081;42.706;23.306;2024-02-23T06:47:06;18.35;;;9.43;;
43933;SDS011;59081;42.706;23.306;2024-02-23T06:52:07;24.67;;;8.88;;
43933;SDS011;59081;42.706;23.306;2024-02-23T06:57:08;10.50;;;5.13;;
43933;SDS011;59081;42.706;23.306;2024-02-23T07:02:08;16.00;;;8.77;;
43933;SDS011;59081;42.706;23.306;2024-02-23T07:07:09;18.13;;;10.32;;
43933;SDS011;59081;42.706;23.306;2024-02-23T07:12:11;17.33;;;8.97;;
43933;SDS011;59081;42.706;23.306;2024-02-23T07:17:16;17.50;;;9.98;;
43933;SDS011;59081;42.706;23.306;2024-02-23T07:22:17;14.55;;;7.85;;
43933;SDS011;59081;42.706;23.306;2024-02-23T07:27:20;16.85;;;9.88;;
43933;SDS011;59081;42.706;23.306;2024-02-23T07:32:21;21.00;;;11.10;;
43933;SDS011;59081;42.706;23.306;2024-02-23T07:37:21;22.38;;;10.95;;
43933;SDS011;59081;42.706;23.306;2024-02-23T07:42:22;20.92;;;11.73;;
43933;SDS011;59081;42.706;23.306;2024-02-23T07:47:22;23.77;;;12.27;;
43933;SDS011;59081;42.706;23.306;2024-02-23T07:52:23;21.40;;;11.88;;
43933;SDS011;59081;42.706;23.306;2024-02-23T07:57:24;24.23;;;13.13;;
43933;SDS011;59081;42.706;23.306;2024-02-23T08:02:24;13.35;;;8.00;;
43933;SDS011;59081;42.706;23.306;2024-02-23T08:07:25;27.55;;;12.32;;
43933;SDS011;59081;42.706;23.306;2024-02-23T08:12:28;21.10;;;12.27;;
43933;SDS011;59081;42.706;23.306;2024-02-23T08:22:29;21.27;;;13.00;;
43933;SDS011;59081;42.706;23.306;2024-02-23T08:27:31;24.52;;;11.48;;
43933;SDS011;59081;42.706;23.306;2024-02-23T08:32:32;21.67;;;11.18;;
43933;SDS011;59081;42.706;23.306;2024-02-23T08:37:32;18.65;;;11.10;;
43933;SDS011;59081;42.706;23.306;2024-02-23T08:42:33;20.05;;;10.50;;
43933;SDS011;59081;42.706;23.306;2024-02-23T08:47:33;20.15;;;11.40;;
43933;SDS011;59081;42.706;23.306;2024-02-23T08:52:35;22.02;;;11.15;;
43933;SDS011;59081;42.706;23.306;2024-02-23T08:57:35;16.73;;;9.07;;
43933;SDS011;59081;42.706;23.306;2024-02-23T09:02:36;21.15;;;10.38;;
43933;SDS011;59081;42.706;23.306;2024-02-23T09:07:38;17.63;;;10.23;;
43933;SDS011;59081;42.706;23.306;2024-02-23T09:12:38;10.57;;;7.50;;
43933;SDS011;59081;42.706;23.306;2024-02-23T09:17:42;16.50;;;9.05;;
43933;SDS011;59081;42.706;23.306;2024-02-23T09:22:43;10.75;;;5.80;;
43933;SDS011;59081;42.706;23.306;2024-02-23T09:27:44;9.93;;;5.35;;
43933;SDS011;59081;42.706;23.306;2024-02-23T09:32:44;9.85;;;5.63;;
43933;SDS011;59081;42.706;23.306;2024-02-23T09:37:45;11.82;;;5.97;;
43933;SDS011;59081;42.706;23.306;2024-02-23T09:42:50;7.28;;;5.20;;
43933;SDS011;59081;42.706;23.306;2024-02-23T09:47:57;9.10;;;4.45;;
43933;SDS011;59081;42.706;23.306;2024-02-23T09:52:58;6.18;;;3.75;;
43933;SDS011;59081;42.706;23.306;2024-02-23T09:57:59;5.15;;;2.47;;
43933;SDS011;59081;42.706;23.306;2024-02-23T10:03:00;3.15;;;2.58;;
43933;SDS011;59081;42.706;23.306;2024-02-23T10:08:00;5.07;;;2.92;;
43933;SDS011;59081;42.706;23.306;2024-02-23T10:13:03;4.32;;;2.63;;
43933;SDS011;59081;42.706;23.306;2024-02-23T10:18:04;2.10;;;1.83;;
43933;SDS011;59081;42.706;23.306;2024-02-23T10:23:05;2.97;;;2.03;;
43933;SDS011;59081;42.706;23.306;2024-02-23T10:28:08;3.08;;;2.20;;
43933;SDS011;59081;42.706;23.306;2024-02-23T10:33:09;3.13;;;2.25;;
43933;SDS011;59081;42.706;23.306;2024-02-23T10:38:12;3.10;;;2.25;;
43933;SDS011;59081;42.706;23.306;2024-02-23T10:43:19;2.80;;;2.05;;
43933;SDS011;59081;42.706;23.306;2024-02-23T10:48:24;3.65;;;2.30;;
43933;SDS011;59081;42.706;23.306;2024-02-23T10:53:27;2.67;;;1.75;;
43933;SDS011;59081;42.706;23.306;2024-02-23T10:58:28;1.58;;;0.95;;
43933;SDS011;59081;42.706;23.306;2024-02-23T11:03:29;1.98;;;1.42;;
43933;SDS011;59081;42.706;23.306;2024-02-23T11:08:34;1.08;;;0.68;;
43933;SDS011;59081;42.706;23.306;2024-02-23T11:13:39;3.67;;;1.60;;
43933;SDS011;59081;42.706;23.306;2024-02-23T11:18:40;2.10;;;1.85;;
43933;SDS011;59081;42.706;23.306;2024-02-23T11:23:43;2.95;;;1.63;;
43933;SDS011;59081;42.706;23.306;2024-02-23T11:28:52;1.70;;;1.20;;
43933;SDS011;59081;42.706;23.306;2024-02-23T11:33:54;2.35;;;1.25;;
43933;SDS011;59081;42.706;23.306;2024-02-23T11:38:59;7.10;;;2.17;;
43933;SDS011;59081;42.706;23.306;2024-02-23T11:44:00;2.47;;;1.23;;
43933;SDS011;59081;42.706;23.306;2024-02-23T11:49:03;2.00;;;1.48;;
43933;SDS011;59081;42.706;23.306;2024-02-23T11:54:04;2.63;;;1.50;;
43933;SDS011;59081;42.706;23.306;2024-02-23T11:59:04;1.30;;;0.95;;
43933;SDS011;59081;42.706;23.306;2024-02-23T12:04:05;3.13;;;1.98;;
43933;SDS011;59081;42.706;23.306;2024-02-23T12:09:05;3.70;;;2.13;;
43933;SDS011;59081;42.706;23.306;2024-02-23T12:14:06;4.05;;;0.98;;
43933;SDS011;59081;42.706;23.306;2024-02-23T12:19:08;4.40;;;1.90;;
43933;SDS011;59081;42.706;23.306;2024-02-23T12:24:09;3.38;;;1.95;;
43933;SDS011;59081;42.706;23.306;2024-02-23T12:29:10;3.67;;;1.67;;
43933;SDS011;59081;42.706;23.306;2024-02-23T12:34:11;2.33;;;1.80;;
43933;SDS011;59081;42.706;23.306;2024-02-23T12:39:12;2.03;;;1.27;;
43933;SDS011;59081;42.706;23.306;2024-02-23T12:44:13;2.10;;;1.60;;
43933;SDS011;59081;42.706;23.306;2024-02-23T12:49:13;2.67;;;1.30;;
43933;SDS011;59081;42.706;23.306;2024-02-23T12:54:14;3.53;;;1.77;;
43933;SDS011;59081;42.706;23.306;2024-02-23T12:59:14;4.28;;;1.75;;
43933;SDS011;59081;42.706;23.306;2024-02-23T13:04:15;2.70;;;1.30;;
43933;SDS011;59081;42.706;23.306;2024-02-23T13:09:15;4.53;;;1.60;;
43933;SDS011;59081;42.706;23.306;2024-02-23T13:14:19;2.88;;;1.60;;
43933;SDS011;59081;42.706;23.306;2024-02-23T13:19:20;1.90;;;1.38;;
43933;SDS011;59081;42.706;23.306;2024-02-23T13:24:20;3.50;;;1.65;;
43933;SDS011;59081;42.706;23.306;2024-02-23T13:29:21;4.00;;;1.50;;
43933;SDS011;59081;42.706;23.306;2024-02-23T13:34:21;3.00;;;1.42;;
43933;SDS011;59081;42.706;23.306;2024-02-23T13:39:22;1.17;;;1.08;;
43933;SDS011;59081;42.706;23.306;2024-02-23T13:44:22;2.28;;;0.93;;
43933;SDS011;59081;42.706;23.306;2024-02-23T13:49:23;3.35;;;1.52;;
43933;SDS011;59081;42.706;23.306;2024-02-23T13:54:24;3.40;;;1.70;;
43933;SDS011;59081;42.706;23.306;2024-02-23T13:59:24;4.72;;;2.70;;
43933;SDS011;59081;42.706;23.306;2024-02-23T14:04:25;2.65;;;2.03;;
43933;SDS011;59081;42.706;23.306;2024-02-23T14:09:26;7.55;;;2.83;;
43933;SDS011;59081;42.706;23.306;2024-02-23T14:14:26;3.42;;;2.10;;
43933;SDS011;59081;42.706;23.306;2024-02-23T14:19:27;3.40;;;1.63;;
43933;SDS011;59081;42.706;23.306;2024-02-23T14:24:27;2.05;;;0.93;;
43933;SDS011;59081;42.706;23.306;2024-02-23T14:29:30;2.42;;;1.50;;
43933;SDS011;59081;42.706;23.306;2024-02-23T14:34:31;3.63;;;1.90;;
43933;SDS011;59081;42.706;23.306;2024-02-23T14:39:33;1.50;;;0.60;;
43933;SDS011;59081;42.706;23.306;2024-02-23T14:44:34;3.53;;;1.95;;
43933;SDS011;59081;42.706;23.306;2024-02-23T14:49:36;1.35;;;1.25;;
43933;SDS011;59081;42.706;23.306;2024-02-23T14:54:36;1.08;;;0.70;;
43933;SDS011;59081;42.706;23.306;2024-02-23T14:59:37;2.45;;;2.13;;
43933;SDS011;59081;42.706;23.306;2024-02-23T15:04:44;2.75;;;1.65;;
43933;SDS011;59081;42.706;23.306;2024-02-23T15:09:44;3.83;;;1.92;;
43933;SDS011;59081;42.706;23.306;2024-02-23T15:14:45;3.70;;;2.10;;
43933;SDS011;59081;42.706;23.306;2024-02-23T15:19:46;1.77;;;1.30;;
43933;SDS011;59081;42.706;23.306;2024-02-23T15:24:46;3.55;;;2.22;;
43933;SDS011;59081;42.706;23.306;2024-02-23T15:29:49;3.53;;;2.45;;
43933;SDS011;59081;42.706;23.306;2024-02-23T15:34:50;2.55;;;1.80;;
43933;SDS011;59081;42.706;23.306;2024-02-23T15:39:51;3.67;;;2.35;;
43933;SDS011;59081;42.706;23.306;2024-02-23T15:44:52;3.42;;;2.15;;
43933;SDS011;59081;42.706;23.306;2024-02-23T15:49:54;3.35;;;1.60;;
43933;SDS011;59081;42.706;23.306;2024-02-23T15:54:55;2.90;;;2.03;;
43933;SDS011;59081;42.706;23.306;2024-02-23T15:59:56;3.60;;;2.53;;
43933;SDS011;59081;42.706;23.306;2024-02-23T16:04:58;3.88;;;2.78;;
43933;SDS011;59081;42.706;23.306;2024-02-23T16:10:02;5.05;;;3.55;;
43933;SDS011;59081;42.706;23.306;2024-02-23T16:15:07;5.25;;;2.80;;
43933;SDS011;59081;42.706;23.306;2024-02-23T16:20:08;8.95;;;2.70;;
43933;SDS011;59081;42.706;23.306;2024-02-23T16:25:09;5.82;;;3.28;;
43933;SDS011;59081;42.706;23.306;2024-02-23T16:30:10;7.85;;;4.10;;
43933;SDS011;59081;42.706;23.306;2024-02-23T16:35:11;18.05;;;10.60;;
43933;SDS011;59081;42.706;23.306;2024-02-23T16:40:18;6.03;;;3.17;;
43933;SDS011;59081;42.706;23.306;2024-02-23T16:45:23;2.58;;;1.88;;
43933;SDS011;59081;42.706;23.306;2024-02-23T16:50:25;6.72;;;2.97;;
43933;SDS011;59081;42.706;23.306;2024-02-23T16:55:25;3.65;;;1.50;;
43933;SDS011;59081;42.706;23.306;2024-02-23T17:00:26;7.68;;;3.30;;
43933;SDS011;59081;42.706;23.306;2024-02-23T17:05:27;5.15;;;3.53;;
43933;SDS011;59081;42.706;23.306;2024-02-23T17:10:28;2.08;;;1.65;;
43933;SDS011;59081;42.706;23.306;2024-02-23T17:15:28;6.40;;;3.72;;
43933;SDS011;59081;42.706;23.306;2024-02-23T17:20:29;4.75;;;3.53;;
43933;SDS011;59081;42.706;23.306;2024-02-23T17:25:31;10.77;;;4.13;;
43933;SDS011;59081;42.706;23.306;2024-02-23T17:30:34;13.73;;;5.45;;
43933;SDS011;59081;42.706;23.306;2024-02-23T17:35:35;12.68;;;5.90;;
43933;SDS011;59081;42.706;23.306;2024-02-23T17:40:36;11.20;;;6.13;;
43933;SDS011;59081;42.706;23.306;2024-02-23T17:45:36;7.25;;;4.47;;
43933;SDS011;59081;42.706;23.306;2024-02-23T17:50:37;4.72;;;3.22;;
43933;SDS011;59081;42.706;23.306;2024-02-23T17:55:38;4.97;;;3.15;;
43933;SDS011;59081;42.706;23.306;2024-02-23T18:00:41;6.47;;;3.90;;
43933;SDS011;59081;42.706;23.306;2024-02-23T18:05:42;5.47;;;3.75;;
43933;SDS011;59081;42.706;23.306;2024-02-23T18:10:42;18.25;;;7.47;;
43933;SDS011;59081;42.706;23.306;2024-02-23T18:20:46;6.30;;;4.10;;
43933;SDS011;59081;42.706;23.306;2024-02-23T18:25:47;14.50;;;5.43;;
43933;SDS011;59081;42.706;23.306;2024-02-23T18:30:48;6.57;;;4.03;;
43933;SDS011;59081;42.706;23.306;2024-02-23T18:35:48;11.73;;;6.35;;
43933;SDS011;59081;42.706;23.306;2024-02-23T18:40:49;12.35;;;6.80;;
43933;SDS011;59081;42.706;23.306;2024-02-23T18:45:53;12.75;;;5.68;;
43933;SDS011;59081;42.706;23.306;2024-02-23T18:50:56;7.10;;;4.72;;
43933;SDS011;59081;42.706;23.306;2024-02-23T18:55:57;9.45;;;5.45;;
43933;SDS011;59081;42.706;23.306;2024-02-23T19:00:57;18.85;;;8.95;;
43933;SDS011;59081;42.706;23.306;2024-02-23T19:05:58;11.40;;;6.53;;
43933;SDS011;59081;42.706;23.306;2024-02-23T19:11:03;10.98;;;6.85;;
43933;SDS011;59081;42.706;23.306;2024-02-23T19:16:11;15.63;;;8.02;;
43933;SDS011;59081;42.706;23.306;2024-02-23T19:21:13;15.85;;;8.20;;
43933;SDS011;59081;42.706;23.306;2024-02-23T19:26:19;12.57;;;6.72;;
43933;SDS011;59081;42.706;23.306;2024-02-23T19:31:19;5.88;;;3.53;;
43933;SDS011;59081;42.706;23.306;2024-02-23T19:36:26;9.25;;;5.95;;
43933;SDS011;59081;42.706;23.306;2024-02-23T19:41:26;4.28;;;2.55;;
43933;SDS011;59081;42.706;23.306;2024-02-23T19:46:30;17.40;;;9.32;;
43933;SDS011;59081;42.706;23.306;2024-02-23T19:51:31;3.72;;;2.63;;
43933;SDS011;59081;42.706;23.306;2024-02-23T19:56:32;7.13;;;2.42;;
43933;SDS011;59081;42.706;23.306;2024-02-23T20:06:38;5.70;;;2.63;;
43933;SDS011;59081;42.706;23.306;2024-02-23T20:11:39;7.75;;;4.25;;
43933;SDS011;59081;42.706;23.306;2024-02-23T20:16:40;3.17;;;2.17;;
43933;SDS011;59081;42.706;23.306;2024-02-23T20:26:44;2.85;;;1.45;;
43933;SDS011;59081;42.706;23.306;2024-02-23T20:31:45;3.10;;;2.25;;
43933;SDS011;59081;42.706;23.306;2024-02-23T20:36:49;3.50;;;1.98;;
43933;SDS011;59081;42.706;23.306;2024-02-23T20:41:49;14.93;;;9.43;;
43933;SDS011;59081;42.706;23.306;2024-02-23T20:46:50;12.60;;;7.68;;
43933;SDS011;59081;42.706;23.306;2024-02-23T20:51:54;0.75;;;0.68;;
43933;SDS011;59081;42.706;23.306;2024-02-23T20:56:56;14.13;;;7.80;;
43933;SDS011;59081;42.706;23.306;2024-02-23T21:01:57;15.38;;;8.07;;
43933;SDS011;59081;42.706;23.306;2024-02-23T21:06:57;13.25;;;8.07;;
43933;SDS011;59081;42.706;23.306;2024-02-23T21:11:58;15.52;;;8.07;;
43933;SDS011;59081;42.706;23.306;2024-02-23T21:17:01;13.55;;;7.95;;
43933;SDS011;59081;42.706;23.306;2024-02-23T21:22:02;13.48;;;8.32;;
43933;SDS011;59081;42.706;23.306;2024-02-23T21:27:02;12.38;;;7.57;;
43933;SDS011;59081;42.706;23.306;2024-02-23T21:32:03;16.83;;;10.43;;
43933;SDS011;59081;42.706;23.306;2024-02-23T21:37:04;11.82;;;7.03;;
43933;SDS011;59081;42.706;23.306;2024-02-23T21:42:07;15.15;;;8.38;;
43933;SDS011;59081;42.706;23.306;2024-02-23T21:47:07;16.67;;;7.68;;
43933;SDS011;59081;42.706;23.306;2024-02-23T21:52:08;12.70;;;6.78;;
43933;SDS011;59081;42.706;23.306;2024-02-23T21:57:11;12.13;;;7.53;;
43933;SDS011;59081;42.706;23.306;2024-02-23T22:02:12;11.35;;;6.20;;
43933;SDS011;59081;42.706;23.306;2024-02-23T22:07:15;12.45;;;6.75;;
43933;SDS011;59081;42.706;23.306;2024-02-23T22:12:16;10.18;;;6.10;;
43933;SDS011;59081;42.706;23.306;2024-02-23T22:17:16;9.45;;;6.28;;
43933;SDS011;59081;42.706;23.306;2024-02-23T22:22:17;10.40;;;6.20;;
43933;SDS011;59081;42.706;23.306;2024-02-23T22:27:17;10.13;;;5.93;;
43933;SDS011;59081;42.706;23.306;2024-02-23T22:32:18;14.00;;;6.45;;
43933;SDS011;59081;42.706;23.306;2024-02-23T22:37:22;14.40;;;7.53;;
43933;SDS011;59081;42.706;23.306;2024-02-23T22:42:22;9.93;;;6.45;;
43933;SDS011;59081;42.706;23.306;2024-02-23T22:47:23;11.05;;;6.13;;
43933;SDS011;59081;42.706;23.306;2024-02-23T22:52:24;11.02;;;6.60;;
43933;SDS011;59081;42.706;23.306;2024-02-23T22:57:24;11.82;;;6.88;;
43933;SDS011;59081;42.706;23.306;2024-02-23T23:02:25;8.32;;;5.82;;
43933;SDS011;59081;42.706;23.306;2024-02-23T23:07:26;12.60;;;7.97;;
43933;SDS011;59081;42.706;23.306;2024-02-23T23:12:27;12.20;;;6.28;;
43933;SDS011;59081;42.706;23.306;2024-02-23T23:17:30;12.45;;;6.57;;
43933;SDS011;59081;42.706;23.306;2024-02-23T23:22:31;13.27;;;7.22;;
43933;SDS011;59081;42.706;23.306;2024-02-23T23:27:35;11.32;;;7.13;;
43933;SDS011;59081;42.706;23.306;2024-02-23T23:32:35;12.52;;;7.68;;
43933;SDS011;59081;42.706;23.306;2024-02-23T23:37:36;10.75;;;6.75;;
43933;SDS011;59081;42.706;23.306;2024-02-23T23:42:37;12.90;;;6.22;;
43933;SDS011;59081;42.706;23.306;2024-02-23T23:47:43;10.25;;;6.13;;
43933;SDS011;59081;42.706;23.306;2024-02-23T23:52:44;5.82;;;4.72;;
43933;SDS011;59081;42.706;23.306;2024-02-23T23:57:45;10.35;;;5.72;;
